createdAt,value
2022-12-31T00:02:05.500Z,8.60
2022-12-31T00:06:26.948Z,8.10
2022-12-31T00:10:29.460Z,7.90
2022-12-31T00:14:31.333Z,8.20
2022-12-31T00:18:33.140Z,8.30
2022-12-31T00:22:34.899Z,8.30
2022-12-31T00:26:37.212Z,7.80
2022-12-31T00:30:39.061Z,8.10
2022-12-31T00:34:40.936Z,8.00
2022-12-31T00:38:45.173Z,8.10
2022-12-31T00:42:47.074Z,8.10
2022-12-31T00:46:48.997Z,8.00
2022-12-31T00:50:50.961Z,8.20
2022-12-31T00:54:52.713Z,7.80
2022-12-31T00:58:54.743Z,7.90
2022-12-31T01:02:56.627Z,8.00
2022-12-31T01:06:58.478Z,8.10
2022-12-31T01:11:19.933Z,7.90
2022-12-31T01:15:21.691Z,8.00
2022-12-31T01:19:26.415Z,8.40
2022-12-31T01:23:28.174Z,8.60
2022-12-31T01:27:29.905Z,8.40
2022-12-31T01:31:34.319Z,8.70
2022-12-31T01:35:36.759Z,8.60
2022-12-31T01:39:38.569Z,8.50
2022-12-31T01:43:54.364Z,8.70
2022-12-31T01:47:59.830Z,9.00
2022-12-31T01:52:27.885Z,9.10
2022-12-31T01:56:29.759Z,9.20
2022-12-31T02:00:32.588Z,9.20
2022-12-31T02:04:34.535Z,9.00
2022-12-31T02:08:41.924Z,9.20
2022-12-31T02:12:44.298Z,9.20
2022-12-31T02:16:51.607Z,9.20
2022-12-31T02:21:26.636Z,8.80
2022-12-31T02:25:39.282Z,8.90
2022-12-31T02:29:49.745Z,8.60
2022-12-31T02:33:59.328Z,8.40
2022-12-31T02:38:07.955Z,8.40
2022-12-31T02:42:11.393Z,8.30
2022-12-31T02:46:30.783Z,8.20
2022-12-31T02:50:59.205Z,8.30
2022-12-31T02:55:13.319Z,8.10
2022-12-31T02:59:45.777Z,7.90
2022-12-31T03:03:47.623Z,8.10
2022-12-31T03:07:49.703Z,8.10
2022-12-31T03:12:09.926Z,7.80
2022-12-31T03:16:11.955Z,7.80
2022-12-31T03:20:32.215Z,8.10
2022-12-31T03:24:52.631Z,8.20
2022-12-31T03:28:54.429Z,8.30
2022-12-31T03:32:56.772Z,8.50
2022-12-31T03:36:58.631Z,8.30
2022-12-31T03:41:00.490Z,8.50
2022-12-31T03:45:02.956Z,8.30
2022-12-31T03:49:04.879Z,8.00
2022-12-31T03:53:06.826Z,8.50
2022-12-31T03:57:08.622Z,8.50
2022-12-31T04:01:10.419Z,8.50
2022-12-31T04:05:12.384Z,8.70
2022-12-31T04:09:14.324Z,8.60
2022-12-31T04:13:16.169Z,8.50
2022-12-31T04:17:18.068Z,8.30
2022-12-31T04:21:19.936Z,8.60
2022-12-31T04:25:21.703Z,8.80
2022-12-31T04:29:23.726Z,8.60
2022-12-31T04:33:25.570Z,8.70
2022-12-31T04:37:27.405Z,8.90
2022-12-31T04:41:29.253Z,8.50
2022-12-31T04:45:31.116Z,8.90
2022-12-31T04:49:32.945Z,8.80
2022-12-31T04:53:34.752Z,8.90
2022-12-31T04:57:36.513Z,9.10
2022-12-31T05:01:39.405Z,9.10
2022-12-31T05:05:44.954Z,8.90
2022-12-31T05:09:46.793Z,9.30
2022-12-31T05:13:48.662Z,9.10
2022-12-31T05:17:50.610Z,9.30
2022-12-31T05:22:10.979Z,9.50
2022-12-31T05:26:12.770Z,9.20
2022-12-31T05:30:14.893Z,9.50
2022-12-31T05:34:16.666Z,9.50
2022-12-31T05:38:18.511Z,9.20
2022-12-31T05:42:20.658Z,9.50
2022-12-31T05:46:22.458Z,9.60
2022-12-31T05:50:24.775Z,9.50
2022-12-31T05:54:30.866Z,9.60
2022-12-31T05:58:32.640Z,9.90
2022-12-31T06:02:34.556Z,9.90
2022-12-31T06:06:36.377Z,10.00
2022-12-31T06:10:38.797Z,10.00
2022-12-31T06:14:45.408Z,9.60
2022-12-31T06:18:50.724Z,9.60
2022-12-31T06:22:52.455Z,9.50
2022-12-31T06:26:54.231Z,9.30
2022-12-31T06:31:00.805Z,9.20
2022-12-31T06:35:02.695Z,9.40
2022-12-31T06:39:04.907Z,9.50
2022-12-31T06:43:06.904Z,9.60
2022-12-31T06:47:08.679Z,9.50
2022-12-31T06:51:17.845Z,9.80
2022-12-31T06:55:20.777Z,9.90
2022-12-31T06:59:28.492Z,9.80
2022-12-31T07:04:15.053Z,9.90
2022-12-31T07:08:45.203Z,9.90
2022-12-31T07:13:08.188Z,10.00
2022-12-31T07:17:28.134Z,10.00
2022-12-31T07:21:36.569Z,10.00
2022-12-31T07:25:43.288Z,9.70
2022-12-31T07:29:50.371Z,9.60
2022-12-31T07:33:59.610Z,9.50
2022-12-31T07:38:38.763Z,9.60
2022-12-31T07:43:19.380Z,9.50
2022-12-31T07:47:26.742Z,9.40
2022-12-31T07:51:28.813Z,9.30
2022-12-31T07:55:30.794Z,9.20
2022-12-31T07:59:33.545Z,9.30
2022-12-31T08:04:02.797Z,9.30
2022-12-31T08:08:26.524Z,9.40
2022-12-31T08:12:34.009Z,9.50
2022-12-31T08:16:36.111Z,9.60
2022-12-31T08:20:52.397Z,9.80
2022-12-31T08:25:03.066Z,9.80
2022-12-31T08:29:04.792Z,9.90
2022-12-31T08:33:22.284Z,9.90
2022-12-31T08:37:40.041Z,9.90
2022-12-31T08:41:45.015Z,9.80
2022-12-31T08:45:51.030Z,9.90
2022-12-31T08:49:53.143Z,10.00
2022-12-31T08:53:55.668Z,10.10
2022-12-31T08:58:00.248Z,10.10
2022-12-31T09:02:07.804Z,9.70
2022-12-31T09:06:29.211Z,9.60
2022-12-31T09:10:40.373Z,9.60
2022-12-31T09:14:53.741Z,9.80
2022-12-31T09:18:55.559Z,9.80
2022-12-31T09:22:58.828Z,9.80
2022-12-31T09:27:27.446Z,10.00
2022-12-31T09:31:47.129Z,9.80
2022-12-31T09:35:54.206Z,9.60
2022-12-31T09:40:00.167Z,9.60
2022-12-31T09:44:23.251Z,9.80
2022-12-31T09:48:50.878Z,9.80
2022-12-31T09:52:52.588Z,9.60
2022-12-31T09:57:06.264Z,9.50
2022-12-31T10:01:26.678Z,9.70
2022-12-31T10:05:31.610Z,10.20
2022-12-31T10:09:50.073Z,10.40
2022-12-31T10:14:47.182Z,10.40
2022-12-31T10:19:24.006Z,10.70
2022-12-31T10:23:28.551Z,10.90
2022-12-31T10:27:55.201Z,11.20
2022-12-31T10:32:24.914Z,10.80
2022-12-31T10:37:02.167Z,10.90
2022-12-31T10:41:34.334Z,10.90
2022-12-31T10:45:58.234Z,10.60
2022-12-31T10:50:20.413Z,11.00
2022-12-31T10:54:50.001Z,11.40
2022-12-31T10:59:13.724Z,11.30
2022-12-31T11:03:36.703Z,11.30
2022-12-31T11:07:46.467Z,11.40
2022-12-31T11:12:13.305Z,11.00
2022-12-31T11:16:36.803Z,10.50
2022-12-31T11:21:11.809Z,10.60
2022-12-31T11:25:19.519Z,10.70
2022-12-31T11:29:45.200Z,11.10
2022-12-31T11:34:02.053Z,11.30
2022-12-31T11:38:21.696Z,11.30
2022-12-31T11:42:32.069Z,11.00
2022-12-31T11:46:37.008Z,11.00
2022-12-31T11:50:59.461Z,11.30
2022-12-31T11:55:20.002Z,11.20
2022-12-31T11:59:22.330Z,11.50
2022-12-31T12:03:24.626Z,11.50
2022-12-31T12:07:27.876Z,11.60
2022-12-31T12:11:35.301Z,11.60
2022-12-31T12:15:37.095Z,11.60
2022-12-31T12:19:44.434Z,11.70
2022-12-31T12:24:06.438Z,11.70
2022-12-31T12:28:44.304Z,11.50
2022-12-31T12:33:01.737Z,11.30
2022-12-31T12:37:04.635Z,11.50
2022-12-31T12:41:18.284Z,11.70
2022-12-31T12:45:26.854Z,11.80
2022-12-31T12:49:49.198Z,11.90
2022-12-31T12:53:57.950Z,12.00
2022-12-31T12:58:26.485Z,11.80
2022-12-31T13:02:43.563Z,12.00
2022-12-31T13:07:17.807Z,11.90
2022-12-31T13:11:30.977Z,12.10
2022-12-31T13:15:48.453Z,12.10
2022-12-31T13:19:59.011Z,12.10
2022-12-31T13:24:31.436Z,12.20
2022-12-31T13:28:35.500Z,12.40
2022-12-31T13:32:42.323Z,12.40
2022-12-31T13:36:47.372Z,12.30
2022-12-31T13:41:07.710Z,12.10
2022-12-31T13:45:22.393Z,11.90
2022-12-31T13:49:31.581Z,11.90
2022-12-31T13:54:24.485Z,11.90
2022-12-31T13:58:37.006Z,12.10
2022-12-31T14:02:52.190Z,12.20
2022-12-31T14:06:57.787Z,12.10
2022-12-31T14:11:18.414Z,12.30
2022-12-31T14:15:25.713Z,12.40
2022-12-31T14:20:07.882Z,12.40
2022-12-31T14:24:30.689Z,12.50
2022-12-31T14:29:01.188Z,12.40
2022-12-31T14:33:28.328Z,12.40
2022-12-31T14:37:51.376Z,12.10
2022-12-31T14:42:10.160Z,12.00
2022-12-31T14:46:18.311Z,12.00
2022-12-31T14:50:28.951Z,11.70
2022-12-31T14:54:37.927Z,11.90
2022-12-31T14:58:42.398Z,11.90
2022-12-31T15:02:49.983Z,12.00
2022-12-31T15:07:01.395Z,12.10
2022-12-31T15:11:16.494Z,12.10
2022-12-31T15:15:44.191Z,12.10
2022-12-31T15:20:17.511Z,11.90
2022-12-31T15:24:30.534Z,11.80
2022-12-31T15:28:34.654Z,11.60
2022-12-31T15:32:41.046Z,11.60
2022-12-31T15:36:55.812Z,11.50
2022-12-31T15:40:58.424Z,11.30
2022-12-31T15:45:07.257Z,11.10
2022-12-31T15:49:18.661Z,10.90
2022-12-31T15:53:43.287Z,10.80
2022-12-31T15:57:46.541Z,10.70
2022-12-31T16:01:48.781Z,10.70
2022-12-31T16:05:53.665Z,10.70
2022-12-31T16:09:59.037Z,10.70
2022-12-31T16:14:01.060Z,10.70
2022-12-31T16:18:14.671Z,10.50
2022-12-31T16:22:26.884Z,10.20
2022-12-31T16:26:33.969Z,10.10
2022-12-31T16:30:36.336Z,10.00
2022-12-31T16:34:38.426Z,10.00
2022-12-31T16:38:40.807Z,9.90
2022-12-31T16:42:45.548Z,9.90
2022-12-31T16:46:47.640Z,9.90
2022-12-31T16:50:56.617Z,9.90
2022-12-31T16:54:59.003Z,9.80
2022-12-31T16:59:05.077Z,9.70
2022-12-31T17:03:24.567Z,9.80
2022-12-31T17:07:32.482Z,9.60
2022-12-31T17:12:01.845Z,9.60
2022-12-31T17:16:03.961Z,9.50
2022-12-31T17:20:11.039Z,9.50
2022-12-31T17:24:13.571Z,9.40
2022-12-31T17:28:24.616Z,9.40
2022-12-31T17:32:45.464Z,9.30
2022-12-31T17:36:58.285Z,9.20
2022-12-31T17:41:06.175Z,9.10
2022-12-31T17:45:18.447Z,8.80
2022-12-31T17:49:27.212Z,8.80
2022-12-31T17:53:29.285Z,8.90
2022-12-31T17:57:31.115Z,8.90
2022-12-31T18:01:33.153Z,8.90
2022-12-31T18:05:35.150Z,9.00
2022-12-31T18:09:36.957Z,9.00
2022-12-31T18:13:38.745Z,8.80
2022-12-31T18:17:40.724Z,8.70
2022-12-31T18:21:43.894Z,8.80
2022-12-31T18:29:47.005Z,8.80
2022-12-31T18:33:50.358Z,8.80
2022-12-31T18:37:52.369Z,8.60
2022-12-31T18:41:54.194Z,8.60
2022-12-31T18:45:56.182Z,8.50
2022-12-31T18:49:58.023Z,8.50
2022-12-31T18:54:01.078Z,8.50
2022-12-31T18:58:02.961Z,8.50
2022-12-31T19:02:07.209Z,8.50
2022-12-31T19:06:09.109Z,8.40
2022-12-31T19:10:13.450Z,8.40
2022-12-31T19:14:18.497Z,8.30
2022-12-31T19:18:20.270Z,8.20
2022-12-31T19:22:22.048Z,7.90
2022-12-31T19:26:23.908Z,7.90
2022-12-31T19:30:32.101Z,7.90
2022-12-31T19:34:33.895Z,7.90
2022-12-31T19:38:35.677Z,8.00
2022-12-31T19:42:38.071Z,7.80
2022-12-31T19:46:39.853Z,7.80
2022-12-31T19:50:45.234Z,7.80
2022-12-31T19:54:47.089Z,7.80
2022-12-31T19:58:48.842Z,7.70
2022-12-31T20:02:50.808Z,7.70
2022-12-31T20:06:52.734Z,7.60
2022-12-31T20:10:58.702Z,7.60
2022-12-31T20:15:00.805Z,7.60
2022-12-31T20:19:02.771Z,7.60
2022-12-31T20:23:04.585Z,7.50
2022-12-31T20:27:07.394Z,7.50
2022-12-31T20:31:18.132Z,7.50
2022-12-31T20:35:20.101Z,7.60
2022-12-31T20:39:22.333Z,7.40
2022-12-31T20:43:24.156Z,7.40
2022-12-31T20:47:25.911Z,7.40
2022-12-31T20:51:29.698Z,7.20
2022-12-31T20:55:32.219Z,7.30
2022-12-31T20:59:34.098Z,7.30
2022-12-31T21:08:02.840Z,7.40
2022-12-31T21:12:23.504Z,7.20
2022-12-31T21:16:26.193Z,7.20
2022-12-31T21:20:28.039Z,7.20
2022-12-31T21:24:30.430Z,7.20
2022-12-31T21:28:32.914Z,7.30
2022-12-31T21:32:34.684Z,7.20
2022-12-31T21:36:36.428Z,7.30
2022-12-31T21:40:38.461Z,7.40
2022-12-31T21:44:40.336Z,7.50
2022-12-31T21:48:42.166Z,7.50
2022-12-31T21:52:44.127Z,7.40
2022-12-31T21:56:45.900Z,7.30
2022-12-31T22:01:08.532Z,7.40
2022-12-31T22:05:17.537Z,7.50
2022-12-31T22:09:23.255Z,7.40
2022-12-31T22:13:25.202Z,7.40
2022-12-31T22:17:26.948Z,7.40
2022-12-31T22:21:28.764Z,7.30
2022-12-31T22:25:32.226Z,7.20
2022-12-31T22:29:34.007Z,7.30
2022-12-31T22:33:35.893Z,7.30
2022-12-31T22:41:59.486Z,7.20
2022-12-31T22:46:16.482Z,6.80
2022-12-31T22:50:18.706Z,6.90
2022-12-31T22:54:20.568Z,7.00
2022-12-31T22:58:25.591Z,7.00
2022-12-31T23:02:27.417Z,7.10
2022-12-31T23:06:29.314Z,6.90
2022-12-31T23:10:49.647Z,6.70
2022-12-31T23:15:09.923Z,6.70
2022-12-31T23:19:31.470Z,6.80
2022-12-31T23:23:33.278Z,6.70
2022-12-31T23:27:35.139Z,6.80
2022-12-31T23:31:37.457Z,6.70
2022-12-31T23:35:39.315Z,6.70
2022-12-31T23:39:42.279Z,6.50
2022-12-31T23:43:44.621Z,6.60
2022-12-31T23:47:46.408Z,6.50
2022-12-31T23:51:48.281Z,6.50
2022-12-31T23:55:50.648Z,6.30
2022-12-31T23:59:52.399Z,6.50
